createdAt,value
2023-12-20T00:01:28.298Z,100985.09
2023-12-20T00:06:31.317Z,101001.81
2023-12-20T00:11:33.244Z,101007.41
2023-12-20T00:16:35.273Z,101016.09
2023-12-20T00:21:37.316Z,101039.16
2023-12-20T00:26:39.265Z,101027.56
2023-12-20T00:31:41.227Z,101051.50
2023-12-20T00:36:43.155Z,101062.97
2023-12-20T00:41:45.462Z,101061.31
2023-12-20T00:46:47.404Z,101068.28
2023-12-20T00:51:51.957Z,101048.06
2023-12-20T00:56:53.949Z,101051.56
2023-12-20T01:01:56.051Z,101078.06
2023-12-20T01:06:58.383Z,101065.81
2023-12-20T01:12:00.549Z,101078.88
2023-12-20T01:17:03.409Z,101062.16
2023-12-20T01:22:05.788Z,101056.00
2023-12-20T01:27:07.748Z,101042.75
2023-12-20T01:32:09.800Z,101059.50
2023-12-20T01:37:11.837Z,101049.75
2023-12-20T01:42:13.685Z,101059.47
2023-12-20T01:47:15.992Z,101063.97
2023-12-20T01:52:18.762Z,101063.88
2023-12-20T01:57:21.338Z,101076.22
2023-12-20T02:02:23.253Z,101076.28
2023-12-20T02:07:25.248Z,101073.66
2023-12-20T02:12:27.256Z,101069.13
2023-12-20T02:17:29.508Z,101070.97
2023-12-20T02:22:31.710Z,101072.53
2023-12-20T02:27:33.863Z,101100.09
2023-12-20T02:32:35.871Z,101100.13
2023-12-20T02:37:37.877Z,101093.91
2023-12-20T02:42:39.783Z,101089.53
2023-12-20T02:47:41.870Z,101080.59
2023-12-20T02:52:46.685Z,101078.03
2023-12-20T02:57:48.995Z,101100.94
2023-12-20T03:02:51.520Z,101102.78
2023-12-20T03:07:53.615Z,101087.69
2023-12-20T03:12:55.507Z,101083.19
2023-12-20T03:17:57.581Z,101076.22
2023-12-20T03:22:59.545Z,101076.16
2023-12-20T03:28:01.866Z,101092.97
2023-12-20T03:33:04.066Z,101082.19
2023-12-20T03:38:06.049Z,101078.88
2023-12-20T03:43:08.229Z,101077.06
2023-12-20T03:48:10.442Z,101080.53
2023-12-20T03:53:12.451Z,101080.47
2023-12-20T03:58:14.382Z,101067.28
2023-12-20T04:03:16.571Z,101064.59
2023-12-20T04:08:18.468Z,101058.53
2023-12-20T04:13:20.495Z,101063.03
2023-12-20T04:18:22.598Z,101083.25
2023-12-20T04:23:24.654Z,101079.72
2023-12-20T04:28:26.908Z,101071.81
2023-12-20T04:33:28.919Z,101072.72
2023-12-20T04:38:30.928Z,101077.88
2023-12-20T04:43:32.912Z,101099.09
2023-12-20T04:48:35.062Z,101085.97
2023-12-20T04:53:37.094Z,101078.91
2023-12-20T04:58:39.043Z,101085.84
2023-12-20T05:03:40.960Z,101083.31
2023-12-20T05:08:42.897Z,101089.53
2023-12-20T05:13:48.020Z,101091.31
2023-12-20T05:18:53.815Z,101079.84
2023-12-20T05:23:55.795Z,101075.38
2023-12-20T05:28:57.797Z,101060.41
2023-12-20T05:34:00.018Z,101065.00
2023-12-20T05:39:02.073Z,101064.81
2023-12-20T05:44:04.038Z,101070.91
2023-12-20T05:49:06.198Z,101092.31
2023-12-20T05:54:09.431Z,101090.38
2023-12-20T05:59:11.353Z,101084.13
2023-12-20T06:04:13.309Z,101074.44
2023-12-20T06:09:16.569Z,101071.81
2023-12-20T06:14:18.997Z,101084.22
2023-12-20T06:19:21.216Z,101092.59
2023-12-20T06:24:23.289Z,101090.09
2023-12-20T06:29:25.258Z,101100.78
2023-12-20T06:34:27.425Z,101107.81
2023-12-20T06:39:30.522Z,101110.66
2023-12-20T06:44:33.064Z,101105.22
2023-12-20T06:49:35.193Z,101108.91
2023-12-20T06:54:37.199Z,101122.19
2023-12-20T06:59:42.722Z,101108.13
2023-12-20T07:04:44.794Z,101110.47
2023-12-20T07:09:47.098Z,101112.94
2023-12-20T07:14:49.149Z,101097.09
2023-12-20T07:19:51.350Z,101093.53
2023-12-20T07:24:56.063Z,101089.38
2023-12-20T07:29:58.141Z,101084.25
2023-12-20T07:35:00.370Z,101092.19
2023-12-20T07:40:02.731Z,101092.38
2023-12-20T07:45:05.238Z,101098.88
2023-12-20T07:50:07.864Z,101096.06
2023-12-20T07:55:10.257Z,101097.84
2023-12-20T08:00:12.783Z,101112.91
2023-12-20T08:05:16.666Z,101113.63
2023-12-20T08:10:20.951Z,101095.06
2023-12-20T08:15:23.173Z,101083.63
2023-12-20T08:20:33.060Z,101087.25
2023-12-20T08:25:42.085Z,101087.13
2023-12-20T08:30:44.169Z,101103.00
2023-12-20T08:35:46.224Z,101116.97
2023-12-20T08:40:48.464Z,101112.63
2023-12-20T08:45:50.447Z,101113.63
2023-12-20T08:50:54.057Z,101110.97
2023-12-20T08:55:55.925Z,101110.06
2023-12-20T09:00:59.236Z,101116.25
2023-12-20T09:06:01.466Z,101109.25
2023-12-20T09:11:03.443Z,101109.22
2023-12-20T09:16:06.218Z,101103.97
2023-12-20T09:21:08.352Z,101086.25
2023-12-20T09:26:10.668Z,101080.16
2023-12-20T09:31:12.732Z,101081.03
2023-12-20T09:36:14.962Z,101081.81
2023-12-20T09:41:17.249Z,101082.72
2023-12-20T09:46:25.885Z,101093.31
2023-12-20T09:51:30.669Z,101091.66
2023-12-20T09:56:32.854Z,101107.44
2023-12-20T10:01:35.766Z,101096.19
2023-12-20T10:06:38.054Z,101088.91
2023-12-20T10:11:40.738Z,101086.19
2023-12-20T10:16:43.311Z,101080.06
2023-12-20T10:21:46.294Z,101066.75
2023-12-20T10:26:48.424Z,101065.03
2023-12-20T10:31:51.405Z,101068.75
2023-12-20T10:36:54.033Z,101072.38
2023-12-20T10:41:55.993Z,101074.81
2023-12-20T10:47:00.060Z,101068.56
2023-12-20T10:52:04.310Z,101071.41
2023-12-20T10:57:07.739Z,101056.44
2023-12-20T11:02:09.984Z,101046.81
2023-12-20T11:07:18.477Z,101049.47
2023-12-20T11:12:30.195Z,101031.63
2023-12-20T11:17:33.484Z,101036.84
2023-12-20T11:22:39.476Z,101039.59
2023-12-20T11:27:48.224Z,101037.88
2023-12-20T11:32:52.466Z,101029.94
2023-12-20T11:37:54.523Z,101028.28
2023-12-20T11:42:56.785Z,101030.84
2023-12-20T11:47:59.444Z,101022.06
2023-12-20T11:53:01.588Z,101016.63
2023-12-20T11:58:03.781Z,101007.78
2023-12-20T12:03:06.004Z,101004.22
2023-12-20T12:08:09.436Z,101009.59
2023-12-20T12:13:11.803Z,100993.72
2023-12-20T12:18:18.015Z,100992.94
2023-12-20T12:23:26.181Z,100990.50
2023-12-20T12:28:29.788Z,100981.94
2023-12-20T12:33:32.102Z,100975.56
2023-12-20T12:38:34.134Z,100957.91
2023-12-20T12:43:37.036Z,100957.66
2023-12-20T12:48:39.991Z,100964.28
2023-12-20T12:53:42.969Z,100973.75
2023-12-20T12:58:45.209Z,100968.34
2023-12-20T13:03:47.366Z,100969.88
2023-12-20T13:08:49.843Z,100961.94
2023-12-20T13:13:52.136Z,100947.94
2023-12-20T13:18:54.334Z,100934.72
2023-12-20T13:23:56.438Z,100930.38
2023-12-20T13:28:58.726Z,100914.13
2023-12-20T13:34:02.244Z,100909.78
2023-12-20T13:39:06.489Z,100907.97
2023-12-20T13:44:08.535Z,100902.06
2023-12-20T13:49:10.838Z,100889.81
2023-12-20T13:54:12.986Z,100877.16
2023-12-20T13:59:16.469Z,100869.47
2023-12-20T14:04:40.467Z,100840.97
2023-12-20T14:09:47.285Z,100846.19
2023-12-20T14:14:49.936Z,100856.84
2023-12-20T14:19:53.150Z,100856.56
2023-12-20T14:24:55.648Z,100847.94
2023-12-20T14:29:57.671Z,100854.28
2023-12-20T14:34:59.844Z,100853.50
2023-12-20T14:40:02.236Z,100861.25
2023-12-20T14:45:05.022Z,100855.09
2023-12-20T14:50:08.720Z,100866.66
2023-12-20T14:55:10.938Z,100870.84
2023-12-20T15:00:18.012Z,100862.91
2023-12-20T15:05:20.518Z,100857.75
2023-12-20T15:10:22.648Z,100845.03
2023-12-20T15:15:25.472Z,100846.88
2023-12-20T15:20:27.475Z,100859.34
2023-12-20T15:25:29.613Z,100853.31
2023-12-20T15:30:31.774Z,100848.06
2023-12-20T15:35:33.778Z,100854.19
2023-12-20T15:40:35.922Z,100845.28
2023-12-20T15:45:38.305Z,100847.88
2023-12-20T15:50:40.621Z,100839.69
2023-12-20T15:55:43.575Z,100833.06
2023-12-20T16:00:45.549Z,100828.78
2023-12-20T16:05:47.590Z,100814.78
2023-12-20T16:10:49.607Z,100825.22
2023-12-20T16:15:51.667Z,100825.38
2023-12-20T16:20:53.582Z,100829.88
2023-12-20T16:25:55.618Z,100820.28
2023-12-20T16:30:57.785Z,100810.53
2023-12-20T16:36:00.024Z,100817.69
2023-12-20T16:41:03.306Z,100797.56
2023-12-20T16:46:06.806Z,100795.31
2023-12-20T16:51:08.960Z,100784.69
2023-12-20T16:56:10.958Z,100769.78
2023-12-20T17:01:15.178Z,100777.81
2023-12-20T17:06:17.184Z,100753.94
2023-12-20T17:11:19.856Z,100740.75
2023-12-20T17:16:21.866Z,100734.59
2023-12-20T17:21:24.049Z,100743.19
2023-12-20T17:26:26.967Z,100738.84
2023-12-20T17:31:29.078Z,100738.03
2023-12-20T17:36:31.407Z,100736.31
2023-12-20T17:41:36.915Z,100717.16
2023-12-20T17:46:39.129Z,100715.38
2023-12-20T17:51:41.624Z,100720.69
2023-12-20T17:56:44.904Z,100705.69
2023-12-20T18:01:46.903Z,100689.72
2023-12-20T18:06:49.066Z,100689.72
2023-12-20T18:11:51.092Z,100673.72
2023-12-20T18:16:53.267Z,100684.56
2023-12-20T18:21:55.518Z,100680.31
2023-12-20T18:26:57.799Z,100660.66
2023-12-20T18:31:59.932Z,100660.09
2023-12-20T18:37:01.906Z,100650.28
2023-12-20T18:42:06.240Z,100646.31
2023-12-20T18:47:08.384Z,100645.31
2023-12-20T18:52:10.522Z,100634.91
2023-12-20T18:57:12.587Z,100633.84
2023-12-20T19:02:14.688Z,100634.69
2023-12-20T19:07:16.858Z,100626.97
2023-12-20T19:12:18.931Z,100616.72
2023-12-20T19:17:21.832Z,100615.84
2023-12-20T19:22:24.043Z,100609.72
2023-12-20T19:27:26.023Z,100616.72
2023-12-20T19:32:29.243Z,100602.88
2023-12-20T19:37:31.695Z,100603.09
2023-12-20T19:42:37.637Z,100593.34
2023-12-20T19:47:39.832Z,100593.44
2023-12-20T19:52:42.082Z,100582.06
2023-12-20T19:57:44.313Z,100547.44
2023-12-20T20:02:46.525Z,100544.94
2023-12-20T20:07:48.951Z,100543.94
2023-12-20T20:12:51.174Z,100538.63
2023-12-20T20:17:53.297Z,100541.97
2023-12-20T20:22:55.242Z,100522.50
2023-12-20T20:27:57.444Z,100510.03
2023-12-20T20:32:59.824Z,100482.75
2023-12-20T20:38:01.869Z,100488.16
2023-12-20T20:43:04.277Z,100485.50
2023-12-20T20:48:16.320Z,100497.84
2023-12-20T20:53:27.476Z,100497.13
2023-12-20T20:58:29.571Z,100484.88
2023-12-20T21:03:31.597Z,100491.94
2023-12-20T21:08:33.744Z,100507.34
2023-12-20T21:13:35.995Z,100495.00
2023-12-20T21:18:38.007Z,100486.97
2023-12-20T21:23:40.316Z,100475.25
2023-12-20T21:28:42.610Z,100478.69
2023-12-20T21:33:44.847Z,100476.59
2023-12-20T21:38:46.894Z,100459.44
2023-12-20T21:43:48.942Z,100450.88
2023-12-20T21:48:54.069Z,100423.47
2023-12-20T21:54:01.226Z,100425.28
2023-12-20T21:59:03.286Z,100424.91
2023-12-20T22:04:06.311Z,100407.91
2023-12-20T22:09:10.016Z,100427.09
2023-12-20T22:14:12.291Z,100435.03
2023-12-20T22:19:14.398Z,100436.13
2023-12-20T22:24:16.756Z,100442.38
2023-12-20T22:29:19.192Z,100440.66
2023-12-20T22:34:21.401Z,100424.84
2023-12-20T22:39:23.979Z,100422.19
2023-12-20T22:44:26.003Z,100417.66
2023-12-20T22:49:28.168Z,100405.50
2023-12-20T22:54:30.115Z,100399.25
2023-12-20T22:59:32.224Z,100406.28
2023-12-20T23:04:35.917Z,100408.94
2023-12-20T23:09:38.832Z,100385.06
2023-12-20T23:14:40.810Z,100383.41
2023-12-20T23:19:43.033Z,100363.84
2023-12-20T23:24:45.190Z,100354.94
2023-12-20T23:29:47.254Z,100346.06
2023-12-20T23:35:00.788Z,100318.22
2023-12-20T23:40:11.517Z,100312.69
2023-12-20T23:45:13.669Z,100325.72
2023-12-20T23:50:16.480Z,100313.38
2023-12-20T23:55:19.879Z,100316.13
